Bewolking Meer informatie Parkstad Weather Satellite


Neerslagradar Meer informatie Parkstad Rain Snow Radar


Onweersbuien Meer informatie Parkstad Lighntning


24/7 Weercamera Meer informatie Parkstad Weathercam


Natuurbrandrisico
CBI







METAR rapporten vliegvelden

   
EHAM - Amsterdam
Gewijzigd: 29-02-2024 11:55
Lichte (mot)regen, Grotendeels bewolkt  
Lichte (mot)regen, Grotendeels bewolkt  
   Wind: Zuiden 22.2 km/h
Wind: Zuiden 22.2 km/h
Temperatuur: 9°C
Voelt als: 6°C
Dauwpunt: 8°C
Vochtigheid: 94%
Barometer: 1008 hPa
Satelliet beelden: Grotendeels bewolkt
Zicht: 8 km
Bewolking: Licht bewolkt 122 m,
Grotendeels bewolkt 183 m
EHAM 291055Z 17012KT 140V200 8000 -DZ FEW004 BKN006 09/08 Q1008 TEMPO 6000
EBAW - Antwerpen
Gewijzigd: 29-02-2024 12:20
Motregen, Grotendeels bewolkt  
Motregen, Grotendeels bewolkt  
   Wind: Zuiden 13 km/h
Wind: Zuiden 13 km/h
Temperatuur: 8°C
Voelt als: 6°C
Dauwpunt: 7°C
Vochtigheid: 93%
Barometer: 1009 hPa
Satelliet beelden: Grotendeels bewolkt
Zicht: 2 km
Bewolking: Gedeeltelijk bewolkt 91 m,
Grotendeels bewolkt 152 m
EBAW 291120Z 17007KT 140V200 2100 DZ SCT003 BKN005 08/07 Q1009 RERA TEMPO 4000 BKN006
EGLL - London
Gewijzigd: 29-02-2024 12:20
Wat regen mogelijk, Motregen, Grotendeels bewolkt  
Wat regen mogelijk, Motregen, Grotendeels bewolkt  
   Wind: Westen 14.8 km/h
Wind: Westen 14.8 km/h
Temperatuur: 10°C
Voelt als: 8°C
Dauwpunt: 9°C
Vochtigheid: 94%
Barometer: 1003 hPa
Satelliet beelden: Grotendeels bewolkt
Zicht: 5 km
Bewolking: Grotendeels bewolkt 213 m,
Grotendeels bewolkt 457 m
EGLL 291120Z 27008KT 5000 -RADZ BKN007 BKN015 10/09 Q1003 RERA REDZ
ELLX - Luxemburg
Gewijzigd: 29-02-2024 12:20
Nevel, Grotendeels bewolkt  
Nevel, Grotendeels bewolkt  
   Wind: ZZO 14.8 km/h
Wind: ZZO 14.8 km/h
Temperatuur: 3°C
Voelt als: -1°C
Dauwpunt: 2°C
Vochtigheid: 93%
Barometer: 1013 hPa
Satelliet beelden: Grotendeels bewolkt
Zicht: 4 km
Bewolking: Grotendeels bewolkt 91 m
ELLX 291120Z 16008KT 3500 BR BKN003 03/02 Q1013 BECMG 5000 BR
EDDM - München
Gewijzigd: 29-02-2024 12:20
Bewolking  
Bewolking  
   Wind: OZO 16.7 km/h
Wind: OZO 16.7 km/h
Temperatuur: 7°C
Voelt als: 4°C
Dauwpunt: 3°C
Vochtigheid: 76%
Barometer: 1015 hPa
Satelliet beelden: Bewolking
Zicht: meer dan 10 km
Bewolking: Bewolking 457 m
EDDM 291120Z AUTO 11009KT 070V140 9999 OVC015 07/03 Q1015 NOSIG
LFPO - Parijs
Gewijzigd: 29-02-2024 12:00
Lichte (mot)regen, Bewolking  
Lichte (mot)regen, Bewolking  
   Wind: Zuiden 18.5 km/h
Wind: Zuiden 18.5 km/h
Temperatuur: 9°C
Voelt als: 6°C
Dauwpunt: 8°C
Vochtigheid: 94%
Barometer: 1010 hPa
Satelliet beelden: Bewolking
Zicht: 5 km
Bewolking: Bewolking 122 m
LFPO 291100Z 18010KT 160V220 4500 -DZ OVC004 09/08 Q1010 TEMPO 3000 -DZRA OVC004
EDDL - Düsseldorf
Gewijzigd: 29-02-2024 12:20
Gedeeltelijk bewolkt  
Gedeeltelijk bewolkt  
   Wind: Zuiden 22.2 km/h
Wind: Zuiden 22.2 km/h
Temperatuur: 9°C
Voelt als: 6°C
Dauwpunt: 2°C
Vochtigheid: 62%
Barometer: 1011 hPa
Satelliet beelden: Gedeeltelijk bewolkt
Zicht: meer dan 10 km
Bewolking: Gedeeltelijk bewolkt 1341 m
EDDL 291120Z AUTO 17012KT 9999 SCT044 09/02 Q1011 NOSIG
EDDK - Köln/Bonn Duitsland
Gewijzigd: 29-02-2024 12:20
Helder  
Helder  
   Wind: ZO 22.2 km/h
Wind: ZO 22.2 km/h
Temperatuur: 10°C
Voelt als: 7°C
Dauwpunt: 1°C
Vochtigheid: 54%
Barometer: 1012 hPa
Zicht: meer dan 10 km
Bewolking: Helder
EDDK 291120Z AUTO 14012KT CAVOK 10/01 Q1012 NOSIG
TNCA - Oranjestad Aruba
Gewijzigd: 29-02-2024 12:00
Licht bewolkt  
Licht bewolkt  
   Wind: Oosten 25.9 km/h
Wind: Oosten 25.9 km/h
Temperatuur: 26°C
Dauwpunt: 22°C
Vochtigheid: 79%
Barometer: 1014 hPa
Satelliet beelden: Licht bewolkt
Zicht: meer dan 10 km
Bewolking: Licht bewolkt 549 m
TNCA 291100Z 09014KT 9999 FEW018 26/22 Q1014 NOSIG
TNCC - Willemstad Curacao
Gewijzigd: 29-02-2024 12:00
Licht bewolkt  
Licht bewolkt  
   Wind: Oosten 16.7 km/h
Wind: Oosten 16.7 km/h
Temperatuur: 26°C
Dauwpunt: 23°C
Vochtigheid: 84%
Barometer: 1015 hPa
Satelliet beelden: Licht bewolkt
Zicht: meer dan 10 km
Bewolking: Licht bewolkt 518 m
TNCC 291100Z 10009KT 9999 FEW017 26/23 Q1015 NOSIG
LEAL - La Nucia Spanje
Gewijzigd: 29-02-2024 12:00
Helder  
Helder  
   Wind: WNW 27.8 km/h
Wind: WNW 27.8 km/h
Temperatuur: 18°C
Dauwpunt: 1°C
Vochtigheid: 32%
Barometer: 1016 hPa
Zicht: meer dan 10 km
Bewolking: Helder
LEAL 291100Z 29015KT 270V340 CAVOK 18/01 Q1016 NOSIG
 

Script ontwikkeld door  Saratoga-weather.org Aangepast voor de template door  Weerstation Leuven

U vindt ons ook hier:

Het Weer Aktueel

WOW Nederland KNMI

Vereniging voor Weerkunde en Klimatologie

UK Met Office Weather Observation Website (WOW)

WeatherCloud

Weather Underground

Awekas

MeteoMap.Cloud

HAMweather, WeatherForYou, PWS Weather

Citizen Weather Observer Program (CWOP)

Apparatuur in gebruik:

Hardwareleverancier
Weerhuisje

Weerstation
Vantage Pro2+ UV

Weercomputer's
alix3d2 & wl330n

Weerprogramma's
Smartbedded

Satelliet NOAA's
WRX137 & KX137

Satelliet Eumetsat
Ayecka SR1 & Triax

Bliksemdetectie
Boltek StormTracker

Webleverancier
F-Service

Weerhuisje

Vantage Pro2+ UV

alix3d2 & wl330n

Smartbedded

WRX137 & KX137

Ayecka SR1 & Triax

Boltek StormTracker

F-Service